createdAt,value
2018-02-06T07:15:04.732Z,99.90
2018-02-06T07:17:38.375Z,99.90
2018-02-06T07:20:08.412Z,99.90
2018-02-06T07:22:40.971Z,99.90
2018-02-06T07:25:08.996Z,99.90
2018-02-06T07:27:37.019Z,99.90
2018-02-06T07:30:19.279Z,99.50
2018-02-06T07:32:47.293Z,99.50
2018-02-06T07:35:15.303Z,98.90
2018-02-06T07:37:43.315Z,98.70
2018-02-06T07:40:11.327Z,97.50
2018-02-06T07:42:43.067Z,96.80
2018-02-06T07:45:11.098Z,96.80
2018-02-06T07:47:41.039Z,95.90
2018-02-06T07:50:09.063Z,95.40
2018-02-06T07:52:37.079Z,94.80
2018-02-06T07:55:05.123Z,94.10
2018-02-06T07:57:37.632Z,93.60
2018-02-06T08:00:06.563Z,93.30
2018-02-06T08:02:35.492Z,92.60
2018-02-06T08:05:03.524Z,92.10
2018-02-06T08:07:31.535Z,91.90
2018-02-06T08:10:01.552Z,91.60
2018-02-06T08:12:29.579Z,90.00
2018-02-06T08:14:57.596Z,90.30
2018-02-06T08:17:29.251Z,90.70
2018-02-06T08:19:57.263Z,86.90
2018-02-06T08:22:25.295Z,87.30
2018-02-06T08:24:53.311Z,87.50
2018-02-06T08:27:27.263Z,84.80
2018-02-06T08:29:55.283Z,83.10
2018-02-06T08:32:23.299Z,82.20
2018-02-06T08:34:58.301Z,83.70
2018-02-06T08:37:26.315Z,82.50
2018-02-06T08:39:55.223Z,81.20
2018-02-06T08:42:26.127Z,83.00
2018-02-06T08:44:57.963Z,80.80
2018-02-06T08:47:26.739Z,76.30
2018-02-06T08:49:55.659Z,76.30
2018-02-06T08:52:23.671Z,73.30
2018-02-06T08:54:53.439Z,70.40
2018-02-06T08:57:21.468Z,70.20
2018-02-06T08:59:51.235Z,72.40
2018-02-06T09:02:19.275Z,72.40
2018-02-06T09:04:47.279Z,75.60
2018-02-06T09:07:18.831Z,75.20
2018-02-06T09:09:48.743Z,67.20
2018-02-06T09:12:16.760Z,67.00
2018-02-06T09:14:45.659Z,70.00
2018-02-06T09:17:13.671Z,72.60
2018-02-06T09:19:45.399Z,76.60
2018-02-06T09:22:14.315Z,76.70
2018-02-06T09:24:44.328Z,77.90
2018-02-06T09:27:13.238Z,75.30
2018-02-06T09:29:47.943Z,74.70
2018-02-06T09:32:15.967Z,72.60
2018-02-06T09:34:43.967Z,70.60
2018-02-06T09:37:12.001Z,72.30
2018-02-06T09:39:40.011Z,73.30
2018-02-06T09:42:08.031Z,75.10
2018-02-06T09:44:38.003Z,76.90
2018-02-06T09:47:06.923Z,79.20
2018-02-06T09:49:37.615Z,81.80
2018-02-06T09:52:09.183Z,81.80
2018-02-06T09:54:38.172Z,81.00
2018-02-06T09:57:06.197Z,80.70
2018-02-06T09:59:34.222Z,81.20
2018-02-06T10:02:02.242Z,78.80
2018-02-06T10:04:31.167Z,77.40
2018-02-06T10:07:00.079Z,75.20
2018-02-06T10:09:28.091Z,75.10
2018-02-06T10:11:56.103Z,74.50
2018-02-06T10:14:26.011Z,69.10
2018-02-06T10:16:54.031Z,66.60
2018-02-06T10:19:22.026Z,60.20
2018-02-06T10:21:50.042Z,57.10
2018-02-06T10:24:18.047Z,48.50
2018-02-06T10:26:46.062Z,46.60
2018-02-06T10:29:15.031Z,48.00
2018-02-06T10:31:43.036Z,49.50
2018-02-06T10:34:11.034Z,52.70
2018-02-06T10:36:39.038Z,52.40
2018-02-06T10:39:07.046Z,55.70
2018-02-06T10:41:40.994Z,56.90
2018-02-06T10:44:09.017Z,52.50
2018-02-06T10:46:42.634Z,50.70
2018-02-06T10:49:13.334Z,48.40
2018-02-06T10:51:45.167Z,48.40
2018-02-06T10:54:13.134Z,46.70
2018-02-06T10:56:41.146Z,46.60
2018-02-06T10:59:10.122Z,44.60
2018-02-06T11:01:38.181Z,42.60
2018-02-06T11:04:06.194Z,44.70
2018-02-06T11:06:34.986Z,44.70
2018-02-06T11:09:04.750Z,46.40
2018-02-06T11:11:32.750Z,46.40
2018-02-06T11:14:02.746Z,42.80
2018-02-06T11:16:30.770Z,44.30
2018-02-06T11:18:58.806Z,44.60
2018-02-06T11:21:30.322Z,45.40
2018-02-06T11:23:58.354Z,47.50
2018-02-06T11:26:26.362Z,46.40
2018-02-06T11:28:55.278Z,46.40
2018-02-06T11:31:24.246Z,46.20
2018-02-06T11:33:53.250Z,45.00
2018-02-06T11:36:22.245Z,43.30
2018-02-06T11:38:50.258Z,43.80
2018-02-06T11:41:18.298Z,44.30
2018-02-06T11:43:46.298Z,45.80
2018-02-06T11:46:18.702Z,46.30
2018-02-06T11:48:47.610Z,48.20
2018-02-06T11:51:15.620Z,45.90
2018-02-06T11:53:45.379Z,48.30
2018-02-06T11:56:13.378Z,48.30
2018-02-06T11:58:47.331Z,46.10
2018-02-06T12:01:16.262Z,45.20
2018-02-06T12:03:44.254Z,45.40
2018-02-06T12:06:13.042Z,45.80
2018-02-06T12:08:42.002Z,45.70
2018-02-06T12:11:10.010Z,44.80
2018-02-06T12:13:38.777Z,45.00
2018-02-06T12:16:07.745Z,45.00
2018-02-06T12:18:41.545Z,47.20
2018-02-06T12:21:12.595Z,46.50
2018-02-06T12:23:45.233Z,46.20
2018-02-06T12:26:16.809Z,49.50
2018-02-06T12:28:53.065Z,49.50
2018-02-06T12:31:24.018Z,52.30
2018-02-06T12:33:55.989Z,51.40
2018-02-06T12:36:24.993Z,49.60
2018-02-06T12:38:56.540Z,48.40
2018-02-06T12:41:25.525Z,47.60
2018-02-06T12:43:53.533Z,45.50
2018-02-06T12:46:22.465Z,44.20
2018-02-06T12:48:54.049Z,47.90
2018-02-06T12:51:22.055Z,51.80
2018-02-06T12:53:52.738Z,52.90
2018-02-06T12:56:20.769Z,52.80
2018-02-06T12:58:48.770Z,52.40
2018-02-06T13:01:16.791Z,52.40
2018-02-06T13:03:45.565Z,54.60
2018-02-06T13:06:14.465Z,54.50
2018-02-06T13:08:46.892Z,56.10
2018-02-06T13:11:14.910Z,56.10
2018-02-06T13:13:43.680Z,56.10
2018-02-06T13:16:16.249Z,57.50
2018-02-06T13:18:45.213Z,57.50
2018-02-06T13:21:13.283Z,59.00
2018-02-06T13:23:42.025Z,61.40
2018-02-06T13:26:11.789Z,60.70
2018-02-06T13:28:39.793Z,60.70
2018-02-06T13:31:08.569Z,55.80
2018-02-06T13:33:36.585Z,55.70
2018-02-06T13:36:04.601Z,54.30
2018-02-06T13:38:32.605Z,52.50
2018-02-06T13:41:03.381Z,49.40
2018-02-06T13:43:32.377Z,49.40
2018-02-06T13:46:01.381Z,52.30
2018-02-06T13:48:35.181Z,56.70
2018-02-06T13:51:04.165Z,60.70
2018-02-06T13:53:32.180Z,59.50
2018-02-06T13:56:05.536Z,57.30
2018-02-06T13:58:33.549Z,57.20
2018-02-06T14:01:02.334Z,60.50
2018-02-06T14:03:32.109Z,59.50
2018-02-06T14:06:06.197Z,59.50
2018-02-06T14:08:34.216Z,58.90
2018-02-06T14:11:02.357Z,60.30
2018-02-06T14:13:34.781Z,59.60
2018-02-06T14:16:06.605Z,59.20
2018-02-06T14:18:34.609Z,61.90
2018-02-06T14:21:02.637Z,63.50
2018-02-06T14:23:30.653Z,64.60
2018-02-06T14:25:58.673Z,65.70
2018-02-06T14:28:27.793Z,65.50
2018-02-06T14:30:55.801Z,65.60
2018-02-06T14:33:25.757Z,64.70
2018-02-06T14:35:53.773Z,63.90
2018-02-06T14:38:27.601Z,64.20
2018-02-06T14:40:55.609Z,63.20
2018-02-06T14:43:23.617Z,64.10
2018-02-06T14:45:52.553Z,67.10
2018-02-06T14:48:20.569Z,68.40
2018-02-06T14:50:49.345Z,70.90
2018-02-06T14:53:19.113Z,71.50
2018-02-06T14:55:52.121Z,71.30
2018-02-06T14:58:21.025Z,71.90
2018-02-06T15:00:49.921Z,73.60
2018-02-06T15:03:18.705Z,74.70
2018-02-06T15:05:51.045Z,74.70
2018-02-06T15:08:22.704Z,75.20
2018-02-06T15:10:55.480Z,76.30
2018-02-06T15:13:23.476Z,76.10
2018-02-06T15:15:52.297Z,72.30
2018-02-06T15:18:20.309Z,72.30
2018-02-06T15:20:48.312Z,70.50
2018-02-06T15:23:21.008Z,69.30
2018-02-06T15:25:49.030Z,69.20
2018-02-06T15:28:17.049Z,67.50
2018-02-06T15:30:45.061Z,65.70
2018-02-06T15:33:13.101Z,63.50
2018-02-06T15:35:41.120Z,64.50
2018-02-06T15:38:11.022Z,62.10
2018-02-06T15:40:39.033Z,61.80
2018-02-06T15:43:09.863Z,62.10
2018-02-06T15:45:37.825Z,61.90
2018-02-06T15:48:06.635Z,60.10
2018-02-06T15:50:35.397Z,59.80
2018-02-06T15:53:10.904Z,59.80
2018-02-06T15:55:46.528Z,61.20
2018-02-06T15:58:20.361Z,63.30
2018-02-06T16:01:06.189Z,65.10
2018-02-06T16:03:35.001Z,68.00
2018-02-06T16:06:05.680Z,70.50
2018-02-06T16:08:33.692Z,70.50
2018-02-06T16:11:02.605Z,71.60
2018-02-06T16:13:31.642Z,74.20
2018-02-06T16:15:59.685Z,75.80
2018-02-06T16:18:27.737Z,78.40
2018-02-06T16:20:55.745Z,81.10
2018-02-06T16:23:23.756Z,83.10
2018-02-06T16:25:52.696Z,84.10
2018-02-06T16:28:22.076Z,85.70
2018-02-06T16:30:50.045Z,86.50
2018-02-06T16:33:28.264Z,87.30
2018-02-06T16:36:03.889Z,89.10
2018-02-06T16:38:35.989Z,89.10
2018-02-06T16:41:04.001Z,90.20
2018-02-06T16:43:34.693Z,91.10
2018-02-06T16:46:10.813Z,91.00
2018-02-06T16:48:49.029Z,91.20
2018-02-06T16:51:17.037Z,91.80
2018-02-06T16:53:46.017Z,92.20
2018-02-06T16:56:17.792Z,92.30
2018-02-06T16:58:46.781Z,92.50
2018-02-06T17:01:14.793Z,92.50
2018-02-06T17:03:43.717Z,92.90
2018-02-06T17:06:11.729Z,93.00
2018-02-06T17:08:39.753Z,93.50
2018-02-06T17:11:07.764Z,93.80
2018-02-06T17:13:37.745Z,93.80
2018-02-06T17:16:06.744Z,94.00
2018-02-06T17:18:36.768Z,94.30
2018-02-06T17:21:05.673Z,94.50
2018-02-06T17:23:33.697Z,94.70
2018-02-06T17:26:01.733Z,94.50
2018-02-06T17:28:31.696Z,94.70
2018-02-06T17:30:59.712Z,94.90
2018-02-06T17:33:27.724Z,94.70
2018-02-06T17:35:57.185Z,94.40
2018-02-06T17:38:25.968Z,94.30
2018-02-06T17:40:54.760Z,94.60
2018-02-06T17:43:24.067Z,94.30
2018-02-06T17:45:55.520Z,94.50
2018-02-06T17:48:23.556Z,94.50
2018-02-06T17:50:52.529Z,94.30
2018-02-06T17:53:20.540Z,94.70
2018-02-06T17:55:53.284Z,94.60
2018-02-06T17:58:21.295Z,94.60
2018-02-06T18:00:50.968Z,95.00
2018-02-06T18:03:18.988Z,95.00
2018-02-06T18:05:47.912Z,95.30
2018-02-06T18:08:15.924Z,95.40
2018-02-06T18:10:47.858Z,95.50
2018-02-06T18:13:15.872Z,95.50
2018-02-06T18:15:53.920Z,95.50
2018-02-06T18:18:21.904Z,95.50
2018-02-06T18:20:49.933Z,95.50
2018-02-06T18:23:19.620Z,95.20
2018-02-06T18:25:47.672Z,95.20
2018-02-06T18:28:17.458Z,95.40
2018-02-06T18:30:53.076Z,95.50
2018-02-06T18:33:35.456Z,95.60
2018-02-06T18:36:03.464Z,95.90
2018-02-06T18:38:33.384Z,95.60
2018-02-06T18:41:02.380Z,95.50
2018-02-06T18:43:36.916Z,95.70
2018-02-06T18:46:05.858Z,95.90
2018-02-06T18:48:34.804Z,96.00
2018-02-06T18:51:03.804Z,96.00
2018-02-06T18:53:31.845Z,95.70
2018-02-06T18:55:59.840Z,95.70
2018-02-06T18:58:40.932Z,95.70
2018-02-06T19:01:09.752Z,95.90
2018-02-06T19:03:37.784Z,95.90
2018-02-06T19:06:05.800Z,95.90
2018-02-06T19:08:38.853Z,96.00
2018-02-06T19:11:07.788Z,96.00
2018-02-06T19:13:36.788Z,96.00
2018-02-06T19:16:10.200Z,96.20
2018-02-06T19:18:39.100Z,96.00
2018-02-06T19:21:09.108Z,96.20
2018-02-06T19:23:37.132Z,96.20
2018-02-06T19:26:22.696Z,96.30
2018-02-06T19:28:52.664Z,96.30
2018-02-06T19:31:21.663Z,96.50
2018-02-06T19:33:53.204Z,96.50
2018-02-06T19:36:25.118Z,97.00
2018-02-06T19:38:53.220Z,96.80
2018-02-06T19:41:24.280Z,96.70
2018-02-06T19:44:07.251Z,96.80
2018-02-06T19:46:40.391Z,97.20
2018-02-06T19:49:16.879Z,97.20
2018-02-06T19:51:49.121Z,97.20
2018-02-06T19:54:21.008Z,97.50
2018-02-06T19:56:54.792Z,97.70
2018-02-06T19:59:23.100Z,97.80
2018-02-06T20:01:51.304Z,97.90
2018-02-06T20:04:24.929Z,97.60
2018-02-06T20:06:59.308Z,97.00
2018-02-06T20:09:27.342Z,97.00
2018-02-06T20:11:57.336Z,96.90
2018-02-06T20:14:32.983Z,97.10
2018-02-06T20:17:13.735Z,97.00
2018-02-06T20:19:49.587Z,97.00
2018-02-06T20:22:19.284Z,96.70
2018-02-06T20:24:48.219Z,96.80
2018-02-06T20:27:20.456Z,96.80
2018-02-06T20:29:49.492Z,96.70
2018-02-06T20:32:17.540Z,96.50
2018-02-06T20:34:48.943Z,96.70
2018-02-06T20:37:16.964Z,96.60
2018-02-06T20:39:48.415Z,96.50
2018-02-06T20:42:24.847Z,96.80
2018-02-06T20:44:52.892Z,96.80
2018-02-06T20:47:25.888Z,97.00
2018-02-06T20:49:54.891Z,97.00
2018-02-06T20:52:23.831Z,96.80
2018-02-06T20:54:53.833Z,96.70
2018-02-06T20:57:26.008Z,97.00
2018-02-06T20:59:54.036Z,97.10
2018-02-06T21:02:27.319Z,97.60
2018-02-06T21:04:56.255Z,97.70
2018-02-06T21:07:30.179Z,98.00
2018-02-06T21:09:58.223Z,98.10
2018-02-06T21:12:36.560Z,97.90
2018-02-06T21:15:07.579Z,97.90
2018-02-06T21:17:37.607Z,98.10
2018-02-06T21:20:07.627Z,98.20
2018-02-06T21:22:42.331Z,98.10
2018-02-06T21:25:12.281Z,98.00
2018-02-06T21:27:40.307Z,98.30
2018-02-06T21:30:10.236Z,98.50
2018-02-06T21:32:38.275Z,98.40
2018-02-06T21:35:09.727Z,98.40
2018-02-06T21:37:37.851Z,98.10
2018-02-06T21:40:13.259Z,98.50
2018-02-06T21:42:42.287Z,98.30
2018-02-06T21:45:13.831Z,98.30
2018-02-06T21:47:42.739Z,98.60
2018-02-06T21:50:12.439Z,98.80
2018-02-06T21:52:41.431Z,98.80
2018-02-06T21:55:12.763Z,98.90
2018-02-06T21:57:44.319Z,98.90
2018-02-06T22:00:12.335Z,98.70
2018-02-06T22:02:41.271Z,98.40
2018-02-06T22:05:09.307Z,98.40
2018-02-06T22:07:38.335Z,98.20
2018-02-06T22:10:06.381Z,98.20
2018-02-06T22:12:34.403Z,97.80
2018-02-06T22:15:06.743Z,97.90
2018-02-06T22:17:34.775Z,97.90
2018-02-06T22:20:02.799Z,97.90
2018-02-06T22:22:40.686Z,98.00
2018-02-06T22:25:12.760Z,98.00
2018-02-06T22:27:41.753Z,98.10
2018-02-06T22:30:22.775Z,98.40
2018-02-06T22:32:51.711Z,98.50
2018-02-06T22:35:25.422Z,98.60
2018-02-06T22:37:54.250Z,98.60
2018-02-06T22:40:22.271Z,98.80
2018-02-06T22:42:51.259Z,99.00
2018-02-06T22:45:23.090Z,99.00
2018-02-06T22:47:52.515Z,99.10
2018-02-06T22:50:20.487Z,99.10
2018-02-06T22:52:53.307Z,99.10
2018-02-06T22:55:28.282Z,99.20
2018-02-06T22:57:58.222Z,99.20
2018-02-06T23:00:28.151Z,99.20
2018-02-06T23:02:57.131Z,99.40
2018-02-06T23:05:25.147Z,99.20
2018-02-06T23:07:56.007Z,99.20
2018-02-06T23:10:25.939Z,99.00
2018-02-06T23:12:53.955Z,99.00
2018-02-06T23:15:22.738Z,99.50
2018-02-06T23:17:53.163Z,99.70
2018-02-06T23:20:33.158Z,99.80
2018-02-06T23:23:03.170Z,99.80
2018-02-06T23:25:31.207Z,99.90
2018-02-06T23:28:00.979Z,99.90
2018-02-06T23:30:34.435Z,99.90
2018-02-06T23:33:02.467Z,99.90
2018-02-06T23:35:33.618Z,99.90
2018-02-06T23:38:09.511Z,99.90
2018-02-06T23:40:38.559Z,99.90
2018-02-06T23:43:06.560Z,99.90
2018-02-06T23:45:35.491Z,99.90
2018-02-06T23:48:14.907Z,99.90
2018-02-06T23:50:42.947Z,99.90
2018-02-06T23:53:25.142Z,99.90
2018-02-06T23:55:55.834Z,99.90
2018-02-06T23:58:24.814Z,99.90
